Time;durP1;ratioP1;P1;durP2;ratioP2;P2;SDS_P1;SDS_P2;PMS_P1;PMS_P2;Temp;Humidity;BMP_temperature;BMP_pressure;BME280_temperature;BME280_humidity;BME280_pressure;Samples;Min_cycle;Max_cycle;Signal;HPM_P1;HPM_P2
2023/08/30 00:00:47;;;;;;;10.30;5.85;;;;;;;;;;5063111;28;20032;-78
2023/08/30 00:03:13;;;;;;;8.32;5.80;;;;;;;;;;5057325;28;20029;-78
2023/08/30 00:05:40;;;;;;;8.52;5.93;;;;;;;;;;5043630;28;20029;-78
2023/08/30 00:08:06;;;;;;;9.85;5.88;;;;;;;;;;5056673;28;20029;-78
2023/08/30 00:10:32;;;;;;;8.13;5.35;;;;;;;;;;5069973;28;20021;-78
2023/08/30 00:12:58;;;;;;;8.25;6.03;;;;;;;;;;5076472;28;20496;-78
2023/08/30 00:15:24;;;;;;;8.77;5.93;;;;;;;;;;5062995;28;20091;-78
2023/08/30 00:17:56;;;;;;;9.63;5.93;;;;;;;;;;5056538;28;20391;-78
2023/08/30 00:20:22;;;;;;;8.93;5.63;;;;;;;;;;5056329;28;20397;-78
2023/08/30 00:22:48;;;;;;;6.97;5.68;;;;;;;;;;5056437;28;20118;-78
2023/08/30 00:25:15;;;;;;;8.95;6.03;;;;;;;;;;5070061;28;20116;-78
2023/08/30 00:27:41;;;;;;;7.47;5.53;;;;;;;;;;5056659;28;20436;-78
2023/08/30 00:30:09;;;;;;;8.93;5.75;;;;;;;;;;5056294;28;20530;-78
2023/08/30 00:32:35;;;;;;;7.65;5.70;;;;;;;;;;5056559;28;20039;-78
2023/08/30 00:35:01;;;;;;;9.43;6.10;;;;;;;;;;5056783;28;20025;-78
2023/08/30 00:37:27;;;;;;;8.77;6.00;;;;;;;;;;5076365;28;20028;-78
2023/08/30 00:39:53;;;;;;;7.35;5.63;;;;;;;;;;5074559;28;20120;-78
2023/08/30 00:42:19;;;;;;;8.55;5.88;;;;;;;;;;5056010;28;20096;-78
2023/08/30 00:44:45;;;;;;;8.98;6.15;;;;;;;;;;5056120;28;20088;-78
2023/08/30 00:47:11;;;;;;;8.05;6.05;;;;;;;;;;5056111;28;20545;-78
2023/08/30 00:49:37;;;;;;;8.43;6.18;;;;;;;;;;5055539;28;20024;-78
2023/08/30 00:52:06;;;;;;;8.80;6.40;;;;;;;;;;5055618;28;20453;-78
2023/08/30 00:54:32;;;;;;;8.00;6.25;;;;;;;;;;5055540;28;20040;-78
2023/08/30 00:56:58;;;;;;;12.00;6.40;;;;;;;;;;5055461;28;20134;-78
2023/08/30 00:59:25;;;;;;;11.68;6.25;;;;;;;;;;5055811;28;20025;-78
2023/08/30 01:01:52;;;;;;;9.32;5.97;;;;;;;;;;5055696;28;20029;-78
2023/08/30 01:04:19;;;;;;;9.80;6.65;;;;;;;;;;5068881;28;20025;-78
2023/08/30 01:06:44;;;;;;;10.02;7.25;;;;;;;;;;5055943;28;20036;-78
2023/08/30 01:09:11;;;;;;;9.77;6.85;;;;;;;;;;5070001;28;20459;-78
2023/08/30 01:11:52;;;;;;;9.50;6.68;;;;;;;;;;5075278;28;20363;-78
2023/08/30 01:14:18;;;;;;;;;;;;;;;;;;5044750;28;20641;-78
2023/08/30 01:16:44;;;;;;;9.43;6.43;;;;;;;;;;5065837;28;19956;-78
2023/08/30 01:19:32;;;;;;;9.50;6.57;;;;;;;;;;5075685;28;20029;-78
2023/08/30 01:22:18;;;;;;;8.82;6.47;;;;;;;;;;5075487;28;20028;-78
2023/08/30 01:25:04;;;;;;;8.57;6.07;;;;;;;;;;5075148;28;20028;-78
2023/08/30 01:27:31;;;;;;;8.52;5.82;;;;;;;;;;5075506;28;20456;-78
2023/08/30 01:29:58;;;;;;;8.85;6.32;;;;;;;;;;5075482;28;20043;-78
2023/08/30 01:32:25;;;;;;;9.38;6.35;;;;;;;;;;5074656;28;20017;-78
2023/08/30 01:34:52;;;;;;;9.98;6.15;;;;;;;;;;5074256;28;20536;-78
2023/08/30 01:37:19;;;;;;;8.93;6.18;;;;;;;;;;5075060;28;20025;-78
2023/08/30 01:39:46;;;;;;;9.27;6.07;;;;;;;;;;5074711;28;20025;-78
2023/08/30 01:42:14;;;;;;;9.43;6.32;;;;;;;;;;5075242;28;20046;-78
2023/08/30 01:44:44;;;;;;;7.05;5.53;;;;;;;;;;5075717;28;20012;-78
2023/08/30 01:47:11;;;;;;;9.93;5.97;;;;;;;;;;5060185;28;20017;-78
2023/08/30 01:49:39;;;;;;;9.05;6.18;;;;;;;;;;5034331;28;20026;-78
2023/08/30 01:52:05;;;;;;;8.77;6.18;;;;;;;;;;5034440;28;20017;-78
2023/08/30 01:54:32;;;;;;;8.23;6.15;;;;;;;;;;5034640;28;20022;-78
2023/08/30 01:56:58;;;;;;;10.48;6.20;;;;;;;;;;5034572;28;20036;-78
2023/08/30 01:59:25;;;;;;;8.32;5.85;;;;;;;;;;5037228;28;20026;-77
2023/08/30 02:01:52;;;;;;;9.43;6.55;;;;;;;;;;5054422;28;20364;-78
2023/08/30 02:04:18;;;;;;;18.02;6.88;;;;;;;;;;5054394;28;20090;-78
2023/08/30 02:06:49;;;;;;;10.70;6.85;;;;;;;;;;5053116;28;20100;-77
2023/08/30 02:09:18;;;;;;;11.48;7.05;;;;;;;;;;5059328;28;20028;-77
2023/08/30 02:11:45;;;;;;;11.48;6.85;;;;;;;;;;5054287;28;20148;-77
2023/08/30 02:14:12;;;;;;;10.25;6.68;;;;;;;;;;5053096;28;20107;-78
2023/08/30 02:16:40;;;;;;;12.40;7.28;;;;;;;;;;5039473;28;20163;-77
2023/08/30 02:19:07;;;;;;;11.23;7.30;;;;;;;;;;5052865;28;20471;-77
2023/08/30 02:21:33;;;;;;;11.90;7.45;;;;;;;;;;5068130;28;20032;-77
2023/08/30 02:23:59;;;;;;;12.38;7.47;;;;;;;;;;5068378;28;20036;-77
2023/08/30 02:26:25;;;;;;;11.70;7.40;;;;;;;;;;5052771;28;20033;-77
2023/08/30 02:28:51;;;;;;;10.57;7.82;;;;;;;;;;5034475;28;20076;-77
2023/08/30 02:31:17;;;;;;;14.15;7.97;;;;;;;;;;5032175;28;20021;-76
2023/08/30 02:33:43;;;;;;;13.15;7.65;;;;;;;;;;5049734;28;20043;-76
2023/08/30 02:36:10;;;;;;;14.02;8.05;;;;;;;;;;5052060;28;20087;-76
2023/08/30 02:38:36;;;;;;;12.35;7.68;;;;;;;;;;5051944;28;20049;-77
2023/08/30 02:41:02;;;;;;;13.93;7.25;;;;;;;;;;5051903;28;20060;-76
2023/08/30 02:43:30;;;;;;;10.90;7.10;;;;;;;;;;5051658;28;20395;-77
2023/08/30 02:45:56;;;;;;;14.05;7.90;;;;;;;;;;5056556;28;20093;-77
2023/08/30 02:48:22;;;;;;;13.25;8.23;;;;;;;;;;5071883;28;20525;-77
2023/08/30 02:50:48;;;;;;;12.77;8.25;;;;;;;;;;5071576;28;20033;-77
2023/08/30 02:53:14;;;;;;;13.43;8.07;;;;;;;;;;5071774;28;20078;-77
2023/08/30 02:55:40;;;;;;;12.38;8.38;;;;;;;;;;5071473;28;20032;-77
2023/08/30 02:58:06;;;;;;;13.50;8.23;;;;;;;;;;5047609;28;20100;-77
2023/08/30 03:00:34;;;;;;;14.25;8.30;;;;;;;;;;5031687;28;20491;-76
2023/08/30 03:03:00;;;;;;;12.70;7.63;;;;;;;;;;5031795;28;20053;-76
2023/08/30 03:05:26;;;;;;;14.50;8.63;;;;;;;;;;5031787;28;20029;-76
2023/08/30 03:07:53;;;;;;;12.80;8.82;;;;;;;;;;5031297;28;20088;-76
2023/08/30 03:10:19;;;;;;;14.80;8.93;;;;;;;;;;5031192;28;20732;-77
2023/08/30 03:12:45;;;;;;;15.38;9.43;;;;;;;;;;5031409;28;20025;-76
2023/08/30 03:15:11;;;;;;;16.20;9.57;;;;;;;;;;5041210;28;20102;-77
2023/08/30 03:17:38;;;;;;;17.00;10.15;;;;;;;;;;5040060;28;20741;-76
2023/08/30 03:20:04;;;;;;;15.30;10.77;;;;;;;;;;5049433;28;20025;-77
2023/08/30 03:22:31;;;;;;;17.77;10.68;;;;;;;;;;5051461;28;20052;-76
2023/08/30 03:24:58;;;;;;;19.25;11.25;;;;;;;;;;5050936;28;20100;-76
2023/08/30 03:27:24;;;;;;;19.25;11.20;;;;;;;;;;5051739;28;20025;-76
2023/08/30 03:29:49;;;;;;;16.52;11.05;;;;;;;;;;5050878;28;20017;-76
2023/08/30 03:32:20;;;;;;;17.90;11.40;;;;;;;;;;5050889;28;20036;-77
2023/08/30 03:34:47;;;;;;;19.58;11.73;;;;;;;;;;5051385;28;20025;-76
2023/08/30 03:37:16;;;;;;;18.92;11.45;;;;;;;;;;5051151;28;20056;-76
2023/08/30 03:39:42;;;;;;;17.20;11.93;;;;;;;;;;5051005;28;20037;-76
2023/08/30 03:42:08;;;;;;;19.95;11.70;;;;;;;;;;5051044;28;20254;-77
2023/08/30 03:44:34;;;;;;;20.02;12.30;;;;;;;;;;5051084;28;20021;-76
2023/08/30 03:47:00;;;;;;;24.00;12.68;;;;;;;;;;5050829;28;20033;-76
2023/08/30 03:49:26;;;;;;;22.00;12.55;;;;;;;;;;5050841;28;20029;-77
2023/08/30 03:51:52;;;;;;;20.92;12.90;;;;;;;;;;5050994;28;20108;-76
2023/08/30 03:54:18;;;;;;;20.48;12.50;;;;;;;;;;5050688;28;20108;-76
2023/08/30 03:56:45;;;;;;;24.10;12.48;;;;;;;;;;5032818;28;20380;-77
2023/08/30 03:59:11;;;;;;;20.85;12.25;;;;;;;;;;5050706;28;20064;-76
2023/08/30 04:01:38;;;;;;;19.20;12.25;;;;;;;;;;5050982;28;20082;-77
2023/08/30 04:04:04;;;;;;;17.80;12.43;;;;;;;;;;5050929;28;20021;-76
2023/08/30 04:06:31;;;;;;;20.95;12.32;;;;;;;;;;5038254;28;20033;-76
2023/08/30 04:08:57;;;;;;;18.13;11.43;;;;;;;;;;5070686;28;20031;-77
2023/08/30 04:11:23;;;;;;;22.27;11.57;;;;;;;;;;5070703;28;20050;-76
2023/08/30 04:13:49;;;;;;;18.27;12.30;;;;;;;;;;5071956;28;20032;-77
2023/08/30 04:16:15;;;;;;;17.60;11.65;;;;;;;;;;5073811;28;20059;-76
2023/08/30 04:18:41;;;;;;;17.98;12.18;;;;;;;;;;5061169;28;20067;-77
2023/08/30 04:21:08;;;;;;;19.75;11.52;;;;;;;;;;5034597;28;20075;-76
2023/08/30 04:23:34;;;;;;;18.42;12.00;;;;;;;;;;5034584;28;20022;-77
2023/08/30 04:26:00;;;;;;;19.35;12.15;;;;;;;;;;5034404;28;20037;-77
2023/08/30 04:28:29;;;;;;;20.90;12.10;;;;;;;;;;5032682;28;20044;-77
2023/08/30 04:30:55;;;;;;;18.25;11.35;;;;;;;;;;5034131;28;20105;-76
2023/08/30 04:33:21;;;;;;;19.60;11.45;;;;;;;;;;5033925;28;20014;-76
2023/08/30 04:35:51;;;;;;;17.77;10.38;;;;;;;;;;5033849;28;20029;-76
2023/08/30 04:38:17;;;;;;;19.95;10.93;;;;;;;;;;5048806;28;20107;-76
2023/08/30 04:40:43;;;;;;;19.13;11.43;;;;;;;;;;5073561;28;20105;-77
2023/08/30 04:43:09;;;;;;;17.33;11.00;;;;;;;;;;5059131;28;20026;-77
2023/08/30 04:45:36;;;;;;;18.05;11.57;;;;;;;;;;5048018;28;20032;-76
2023/08/30 04:48:03;;;;;;;21.08;11.52;;;;;;;;;;5053508;28;20024;-76
2023/08/30 04:50:30;;;;;;;17.20;10.70;;;;;;;;;;5054174;28;20025;-77
2023/08/30 04:52:56;;;;;;;18.10;11.00;;;;;;;;;;5053625;28;20017;-77
2023/08/30 04:55:22;;;;;;;17.98;11.13;;;;;;;;;;5053296;28;20039;-76
2023/08/30 04:57:48;;;;;;;16.42;10.38;;;;;;;;;;5053902;28;20032;-76
2023/08/30 05:00:15;;;;;;;16.05;10.82;;;;;;;;;;5053517;28;20029;-77
2023/08/30 05:02:43;;;;;;;20.98;11.40;;;;;;;;;;5053590;28;20029;-77
2023/08/30 05:05:09;;;;;;;18.08;11.00;;;;;;;;;;5053771;28;20029;-77
2023/08/30 05:07:35;;;;;;;19.25;11.80;;;;;;;;;;5053320;28;20048;-77
2023/08/30 05:10:01;;;;;;;17.55;11.45;;;;;;;;;;5053113;28;20043;-76
2023/08/30 05:12:28;;;;;;;18.30;11.00;;;;;;;;;;5053164;28;20017;-76
2023/08/30 05:14:54;;;;;;;18.40;11.73;;;;;;;;;;5052725;28;20056;-77
2023/08/30 05:17:20;;;;;;;16.13;10.75;;;;;;;;;;5061902;28;20029;-77
2023/08/30 05:19:46;;;;;;;17.33;11.10;;;;;;;;;;5045415;28;20024;-77
2023/08/30 05:22:12;;;;;;;17.38;11.65;;;;;;;;;;5033183;28;20508;-77
2023/08/30 05:24:38;;;;;;;19.02;11.13;;;;;;;;;;5032687;28;20037;-76
2023/08/30 05:27:04;;;;;;;19.05;11.48;;;;;;;;;;5032763;28;20477;-77
2023/08/30 05:29:30;;;;;;;19.00;12.63;;;;;;;;;;5067467;28;20399;-78
2023/08/30 05:31:56;;;;;;;20.23;11.15;;;;;;;;;;5072838;28;20040;-77
2023/08/30 05:34:23;;;;;;;16.23;11.30;;;;;;;;;;5052875;28;20025;-77
2023/08/30 05:36:49;;;;;;;21.52;11.70;;;;;;;;;;5052695;28;20029;-76
2023/08/30 05:39:15;;;;;;;18.52;11.38;;;;;;;;;;5052702;28;20024;-77
2023/08/30 05:41:41;;;;;;;19.27;11.65;;;;;;;;;;5052345;28;20056;-77
2023/08/30 05:44:08;;;;;;;19.42;11.88;;;;;;;;;;5053046;28;20051;-77
2023/08/30 05:46:34;;;;;;;19.45;12.13;;;;;;;;;;5052937;28;20025;-77
2023/08/30 05:49:02;;;;;;;16.23;10.48;;;;;;;;;;5034105;28;20075;-77
2023/08/30 05:51:28;;;;;;;17.17;11.30;;;;;;;;;;5052727;28;20194;-77
2023/08/30 05:53:54;;;;;;;17.85;11.32;;;;;;;;;;5052036;28;20547;-76
2023/08/30 05:56:20;;;;;;;18.25;11.93;;;;;;;;;;5052444;28;20079;-77
2023/08/30 05:58:46;;;;;;;20.55;11.48;;;;;;;;;;5052341;28;20022;-78
2023/08/30 06:01:14;;;;;;;17.60;11.43;;;;;;;;;;5053129;28;20396;-78
2023/08/30 06:03:40;;;;;;;17.13;11.07;;;;;;;;;;5052552;28;20043;-78
2023/08/30 06:06:06;;;;;;;17.77;11.20;;;;;;;;;;5035600;28;20128;-78
2023/08/30 06:08:32;;;;;;;19.83;11.43;;;;;;;;;;5052947;28;20067;-78
2023/08/30 06:10:59;;;;;;;19.23;11.68;;;;;;;;;;5052195;28;20029;-78
2023/08/30 06:13:25;;;;;;;19.95;11.38;;;;;;;;;;5052701;28;20027;-78
2023/08/30 06:15:52;;;;;;;19.77;11.80;;;;;;;;;;5051493;28;20423;-78
2023/08/30 06:18:18;;;;;;;18.92;11.80;;;;;;;;;;5052112;28;20021;-78
2023/08/30 06:20:44;;;;;;;17.50;10.60;;;;;;;;;;5052118;28;20024;-78
2023/08/30 06:23:10;;;;;;;19.30;12.45;;;;;;;;;;5035872;28;20021;-78
2023/08/30 06:25:36;;;;;;;20.25;11.43;;;;;;;;;;5032735;28;20479;-78
2023/08/30 06:28:03;;;;;;;20.65;12.00;;;;;;;;;;5032211;28;20103;-78
2023/08/30 06:30:29;;;;;;;21.90;12.15;;;;;;;;;;5042633;28;20021;-78
2023/08/30 06:32:56;;;;;;;20.33;11.63;;;;;;;;;;5051662;28;20017;-78
2023/08/30 06:35:22;;;;;;;18.48;11.35;;;;;;;;;;5051896;28;20490;-77
2023/08/30 06:37:48;;;;;;;18.42;11.52;;;;;;;;;;5051951;28;20028;-78
2023/08/30 06:40:14;;;;;;;19.02;11.68;;;;;;;;;;5053577;28;20017;-78
2023/08/30 06:42:40;;;;;;;16.80;10.68;;;;;;;;;;5058124;28;20032;-78
2023/08/30 06:45:06;;;;;;;16.42;10.50;;;;;;;;;;5053819;28;20029;-80
2023/08/30 06:47:32;;;;;;;15.45;10.10;;;;;;;;;;5053824;28;20075;-80
2023/08/30 06:49:58;;;;;;;16.20;10.13;;;;;;;;;;5062948;28;20025;-79
2023/08/30 06:52:24;;;;;;;13.38;9.68;;;;;;;;;;5055739;28;20025;-79
2023/08/30 06:54:52;;;;;;;14.30;9.32;;;;;;;;;;5052623;28;20044;-78
2023/08/30 06:57:18;;;;;;;16.60;10.48;;;;;;;;;;5051802;28;20033;-79
2023/08/30 06:59:44;;;;;;;18.55;9.88;;;;;;;;;;5052138;28;20100;-79
2023/08/30 07:02:10;;;;;;;13.10;8.65;;;;;;;;;;5052330;28;20158;-79
2023/08/30 07:04:35;;;;;;;15.00;9.25;;;;;;;;;;5062849;28;20034;-79
2023/08/30 07:07:02;;;;;;;16.90;10.05;;;;;;;;;;5054369;28;20033;-79
2023/08/30 07:09:28;;;;;;;13.90;9.02;;;;;;;;;;5052629;28;20028;-79
2023/08/30 07:11:55;;;;;;;15.57;9.70;;;;;;;;;;5053302;28;20029;-79
2023/08/30 07:14:21;;;;;;;15.60;9.20;;;;;;;;;;5051986;28;20120;-79
2023/08/30 07:16:49;;;;;;;17.42;10.02;;;;;;;;;;5051966;28;20103;-79
2023/08/30 07:19:15;;;;;;;16.80;10.15;;;;;;;;;;5052298;28;20032;-79
2023/08/30 07:21:42;;;;;;;16.33;10.77;;;;;;;;;;5052484;28;20028;-79
2023/08/30 07:24:08;;;;;;;15.27;10.15;;;;;;;;;;5051949;28;20061;-79
2023/08/30 07:26:34;;;;;;;16.70;9.43;;;;;;;;;;5052301;28;20032;-79
2023/08/30 07:29:00;;;;;;;12.88;9.27;;;;;;;;;;5065615;28;20032;-79
2023/08/30 07:31:26;;;;;;;15.50;9.52;;;;;;;;;;5059197;28;20025;-78
2023/08/30 07:33:52;;;;;;;14.85;9.00;;;;;;;;;;5051541;28;20017;-78
2023/08/30 07:36:18;;;;;;;18.42;9.68;;;;;;;;;;5051412;28;20032;-79
2023/08/30 07:38:44;;;;;;;13.85;8.52;;;;;;;;;;5051795;28;20033;-79
2023/08/30 07:41:11;;;;;;;14.65;9.75;;;;;;;;;;5052524;28;20475;-79
2023/08/30 07:43:37;;;;;;;14.02;8.57;;;;;;;;;;5064016;28;20457;-79
2023/08/30 07:46:03;;;;;;;13.48;8.75;;;;;;;;;;5053515;28;20090;-79
2023/08/30 07:48:29;;;;;;;15.02;8.40;;;;;;;;;;5052946;28;20039;-79
2023/08/30 07:50:55;;;;;;;13.20;8.15;;;;;;;;;;5055649;28;20471;-79
2023/08/30 07:53:21;;;;;;;12.45;7.53;;;;;;;;;;5055232;28;20083;-79
2023/08/30 07:55:50;;;;;;;8.85;6.55;;;;;;;;;;5055492;28;20037;-79
2023/08/30 07:58:17;;;;;;;10.65;6.57;;;;;;;;;;5057002;28;20090;-79
2023/08/30 08:00:43;;;;;;;9.20;6.05;;;;;;;;;;5060227;28;20029;-79
2023/08/30 08:03:10;;;;;;;8.90;5.60;;;;;;;;;;5062931;28;20024;-80
2023/08/30 08:05:36;;;;;;;9.75;5.63;;;;;;;;;;5037779;28;20106;-80
2023/08/30 08:08:02;;;;;;;12.07;5.88;;;;;;;;;;5055374;28;20483;-79
2023/08/30 08:10:29;;;;;;;9.50;5.80;;;;;;;;;;5055211;28;20479;-80
2023/08/30 08:12:55;;;;;;;9.45;5.85;;;;;;;;;;5055150;28;20098;-79
2023/08/30 08:15:21;;;;;;;10.30;6.50;;;;;;;;;;5054808;28;20086;-79
2023/08/30 08:17:47;;;;;;;8.82;5.80;;;;;;;;;;5055137;28;20060;-79
2023/08/30 08:20:13;;;;;;;8.77;5.75;;;;;;;;;;5054778;28;20078;-77
2023/08/30 08:22:41;;;;;;;6.65;4.90;;;;;;;;;;5054276;28;20027;-78
2023/08/30 08:25:09;;;;;;;8.20;5.30;;;;;;;;;;5050614;28;20094;-79
2023/08/30 08:27:36;;;;;;;8.38;5.15;;;;;;;;;;5055071;28;20017;-79
2023/08/30 08:30:06;;;;;;;8.68;5.15;;;;;;;;;;5058345;28;20096;-79
2023/08/30 08:32:33;;;;;;;5.75;4.95;;;;;;;;;;5055029;28;20466;-79
2023/08/30 08:34:59;;;;;;;7.00;5.10;;;;;;;;;;5054892;28;20040;-79
2023/08/30 08:37:25;;;;;;;8.75;5.47;;;;;;;;;;5054681;28;20025;-78
2023/08/30 08:39:51;;;;;;;7.70;5.82;;;;;;;;;;5045650;28;20033;-79
2023/08/30 08:42:18;;;;;;;7.68;5.43;;;;;;;;;;5055531;28;20017;-79
2023/08/30 08:44:45;;;;;;;7.57;5.57;;;;;;;;;;5042209;28;20460;-79
2023/08/30 08:47:11;;;;;;;8.05;5.70;;;;;;;;;;5054983;28;20029;-79
2023/08/30 08:49:38;;;;;;;8.10;5.88;;;;;;;;;;5055272;28;20056;-79
2023/08/30 08:52:04;;;;;;;7.38;5.93;;;;;;;;;;5055244;28;20060;-79
2023/08/30 08:54:30;;;;;;;6.00;5.10;;;;;;;;;;5055605;28;20071;-79
2023/08/30 08:56:57;;;;;;;6.80;5.30;;;;;;;;;;5055475;28;20104;-79
2023/08/30 08:59:24;;;;;;;6.05;4.53;;;;;;;;;;5055633;28;20028;-79
2023/08/30 09:01:50;;;;;;;6.72;4.95;;;;;;;;;;5044372;28;20067;-79
2023/08/30 09:04:16;;;;;;;6.78;5.38;;;;;;;;;;5067130;28;20028;-79
2023/08/30 09:06:43;;;;;;;8.00;4.78;;;;;;;;;;5056042;28;20033;-79
2023/08/30 09:09:09;;;;;;;6.20;4.70;;;;;;;;;;5056447;28;20573;-79
2023/08/30 09:11:36;;;;;;;5.70;5.10;;;;;;;;;;5055814;28;20017;-79
2023/08/30 09:14:02;;;;;;;7.95;5.65;;;;;;;;;;5055629;28;20021;-79
2023/08/30 09:16:28;;;;;;;8.23;5.90;;;;;;;;;;5066765;28;20045;-80
2023/08/30 09:18:58;;;;;;;8.82;5.22;;;;;;;;;;5077213;28;20095;-79
2023/08/30 09:21:24;;;;;;;6.97;4.97;;;;;;;;;;5064580;28;20017;-79
2023/08/30 09:24:06;;;;;;;7.45;5.03;;;;;;;;;;5055060;28;20029;-79
2023/08/30 09:26:33;;;;;;;8.27;5.70;;;;;;;;;;5055237;28;20029;-79
2023/08/30 09:29:06;;;;;;;9.32;5.32;;;;;;;;;;5055408;28;20427;-79
2023/08/30 09:31:34;;;;;;;13.00;5.68;;;;;;;;;;5035153;28;20029;-79
2023/08/30 09:34:01;;;;;;;8.85;6.03;;;;;;;;;;5048136;28;20037;-79
2023/08/30 09:36:27;;;;;;;7.38;5.60;;;;;;;;;;5046545;28;20057;-78
2023/08/30 09:38:57;;;;;;;6.72;5.07;;;;;;;;;;5054581;28;20066;-79
2023/08/30 09:41:23;;;;;;;;;;;;;;;;;;5033503;28;20041;-78
2023/08/30 09:43:50;;;;;;;9.23;5.53;;;;;;;;;;5051411;28;19909;-78
2023/08/30 09:46:16;;;;;;;8.60;6.35;;;;;;;;;;5053402;28;20129;-78
2023/08/30 09:48:42;;;;;;;8.10;5.30;;;;;;;;;;5053335;28;20022;-78
2023/08/30 09:51:11;;;;;;;7.50;5.90;;;;;;;;;;5070648;28;20113;-78
2023/08/30 09:53:42;;;;;;;8.13;5.67;;;;;;;;;;5053714;28;20034;-78
2023/08/30 09:56:09;;;;;;;9.27;6.35;;;;;;;;;;5032384;28;20037;-78
2023/08/30 09:58:35;;;;;;;8.93;5.50;;;;;;;;;;5048911;28;20021;-78
2023/08/30 10:01:02;;;;;;;8.32;5.88;;;;;;;;;;5053585;28;20025;-79
2023/08/30 10:03:29;;;;;;;7.72;6.13;;;;;;;;;;5054324;28;20075;-79
2023/08/30 10:05:55;;;;;;;10.93;6.25;;;;;;;;;;5053959;28;20025;-79
2023/08/30 10:08:22;;;;;;;8.07;6.30;;;;;;;;;;5053687;28;20029;-78
2023/08/30 10:10:49;;;;;;;9.10;6.05;;;;;;;;;;5070236;28;20029;-78
2023/08/30 10:13:16;;;;;;;7.28;5.82;;;;;;;;;;5073320;28;20100;-79
2023/08/30 10:15:47;;;;;;;7.78;5.68;;;;;;;;;;5048432;28;20395;-79
2023/08/30 10:18:16;;;;;;;11.02;5.88;;;;;;;;;;5053496;28;20016;-79
2023/08/30 10:20:42;;;;;;;7.68;6.05;;;;;;;;;;5055012;28;20023;-78
2023/08/30 10:23:08;;;;;;;8.57;6.15;;;;;;;;;;5055623;28;20031;-79
2023/08/30 10:25:35;;;;;;;9.20;6.07;;;;;;;;;;5046273;28;20472;-78
2023/08/30 10:28:01;;;;;;;8.18;6.18;;;;;;;;;;5044315;28;20396;-79
2023/08/30 10:30:28;;;;;;;8.43;6.00;;;;;;;;;;5052887;28;20033;-79
2023/08/30 10:32:54;;;;;;;12.15;6.70;;;;;;;;;;5062320;28;20048;-79
2023/08/30 10:35:20;;;;;;;9.65;6.22;;;;;;;;;;5055908;28;20033;-81
2023/08/30 10:37:56;;;;;;;9.68;6.60;;;;;;;;;;5040356;28;20468;-79
2023/08/30 10:40:22;;;;;;;7.82;6.50;;;;;;;;;;5053594;28;20104;-80
2023/08/30 10:42:59;;;;;;;8.60;6.38;;;;;;;;;;5056800;28;20079;-80
2023/08/30 10:45:25;;;;;;;10.60;6.95;;;;;;;;;;5053875;28;20025;-80
2023/08/30 10:47:54;;;;;;;8.52;6.72;;;;;;;;;;5065799;28;20025;-80
2023/08/30 10:50:28;;;;;;;8.23;6.18;;;;;;;;;;5048201;28;20508;-80
2023/08/30 10:52:57;;;;;;;8.50;6.30;;;;;;;;;;5043314;28;20030;-80
2023/08/30 10:55:23;;;;;;;10.87;5.27;;;;;;;;;;5064714;28;20033;-80
2023/08/30 10:57:58;;;;;;;6.47;5.47;;;;;;;;;;5053959;28;20056;-80
2023/08/30 11:00:24;;;;;;;7.85;5.50;;;;;;;;;;5053387;28;20090;-80
2023/08/30 11:02:52;;;;;;;9.85;6.03;;;;;;;;;;5055194;28;20475;-80
2023/08/30 11:05:19;;;;;;;10.07;5.32;;;;;;;;;;5042959;28;20026;-80
2023/08/30 11:07:45;;;;;;;10.30;5.93;;;;;;;;;;5053314;28;20075;-80
2023/08/30 11:10:11;;;;;;;9.18;5.80;;;;;;;;;;5058075;28;20024;-80
2023/08/30 11:12:37;;;;;;;8.57;6.07;;;;;;;;;;5063576;28;20078;-81
2023/08/30 11:15:03;;;;;;;8.15;6.00;;;;;;;;;;5059768;28;20642;-79
2023/08/30 11:17:29;;;;;;;8.48;5.85;;;;;;;;;;5053753;28;20041;-79
2023/08/30 11:20:06;;;;;;;6.63;5.15;;;;;;;;;;5055547;28;20020;-79
2023/08/30 11:22:32;;;;;;;7.20;5.72;;;;;;;;;;5053617;28;20028;-79
2023/08/30 11:24:58;;;;;;;5.47;4.82;;;;;;;;;;5067091;28;20021;-79
2023/08/30 11:27:24;;;;;;;9.68;5.25;;;;;;;;;;5069928;28;20056;-79
2023/08/30 11:29:50;;;;;;;6.20;5.00;;;;;;;;;;5061946;28;20075;-79
2023/08/30 11:32:17;;;;;;;7.93;5.38;;;;;;;;;;5069192;28;20482;-78
2023/08/30 11:34:44;;;;;;;6.47;4.53;;;;;;;;;;5068138;28;20021;-78
2023/08/30 11:37:10;;;;;;;6.20;4.35;;;;;;;;;;5057790;28;20038;-80
2023/08/30 11:39:36;;;;;;;3.83;3.28;;;;;;;;;;5060222;28;20024;-80
2023/08/30 11:42:05;;;;;;;37.88;5.38;;;;;;;;;;5063041;28;20020;-80
2023/08/30 11:44:31;;;;;;;4.22;3.65;;;;;;;;;;5067101;28;20479;-80
2023/08/30 11:47:00;;;;;;;4.93;3.80;;;;;;;;;;5068409;28;20020;-80
2023/08/30 11:49:27;;;;;;;4.05;3.38;;;;;;;;;;5067419;28;20396;-80
2023/08/30 11:51:53;;;;;;;3.38;2.92;;;;;;;;;;5063805;28;20033;-81
2023/08/30 11:54:20;;;;;;;3.78;3.13;;;;;;;;;;5064396;28;20032;-80
2023/08/30 11:56:57;;;;;;;3.67;3.22;;;;;;;;;;5068147;28;20116;-80
2023/08/30 11:59:23;;;;;;;4.18;3.20;;;;;;;;;;5067967;28;20052;-80
2023/08/30 12:01:49;;;;;;;2.92;2.65;;;;;;;;;;5058874;28;20036;-79
2023/08/30 12:04:15;;;;;;;5.20;3.13;;;;;;;;;;5058519;28;20396;-80
2023/08/30 12:06:41;;;;;;;3.03;2.72;;;;;;;;;;5063112;28;20024;-80
2023/08/30 12:09:12;;;;;;;2.47;2.13;;;;;;;;;;5073622;28;20103;-80
2023/08/30 12:11:38;;;;;;;2.67;2.20;;;;;;;;;;5058186;28;20035;-80
2023/08/30 12:14:04;;;;;;;3.00;2.35;;;;;;;;;;5042856;28;20375;-80
2023/08/30 12:16:31;;;;;;;2.53;2.33;;;;;;;;;;5050120;28;20120;-81
2023/08/30 12:18:57;;;;;;;1.73;1.33;;;;;;;;;;5066584;28;20017;-80
2023/08/30 12:21:23;;;;;;;2.00;1.75;;;;;;;;;;5059101;28;20353;-81
2023/08/30 12:23:49;;;;;;;2.13;1.92;;;;;;;;;;5060271;28;20033;-81
2023/08/30 12:26:15;;;;;;;3.60;2.63;;;;;;;;;;5041495;28;20079;-80
2023/08/30 12:28:44;;;;;;;3.90;3.60;;;;;;;;;;5059093;28;20034;-80
2023/08/30 12:31:10;;;;;;;4.47;3.50;;;;;;;;;;5061637;28;20032;-80
2023/08/30 12:33:37;;;;;;;4.10;3.45;;;;;;;;;;5072009;28;20029;-80
2023/08/30 12:36:03;;;;;;;3.55;3.25;;;;;;;;;;5058690;28;20163;-80
2023/08/30 12:38:29;;;;;;;4.03;3.30;;;;;;;;;;5058454;28;20385;-80
2023/08/30 12:40:57;;;;;;;4.00;3.42;;;;;;;;;;5059211;28;20025;-81
2023/08/30 12:43:30;;;;;;;4.78;3.55;;;;;;;;;;5045908;28;20032;-81
2023/08/30 12:45:56;;;;;;;3.85;3.38;;;;;;;;;;5058468;28;20448;-80
2023/08/30 12:48:22;;;;;;;4.10;3.65;;;;;;;;;;5058842;28;20079;-80
2023/08/30 12:50:49;;;;;;;2.80;2.58;;;;;;;;;;5037133;28;20026;-80
2023/08/30 12:53:18;;;;;;;3.88;2.03;;;;;;;;;;5060056;28;20111;-80
2023/08/30 12:55:44;;;;;;;5.03;2.10;;;;;;;;;;5069852;28;20479;-80
2023/08/30 12:58:11;;;;;;;5.50;2.60;;;;;;;;;;5058151;28;20021;-80
2023/08/30 13:00:38;;;;;;;2.90;2.40;;;;;;;;;;5059122;28;20020;-80
2023/08/30 13:03:04;;;;;;;5.45;2.28;;;;;;;;;;5071209;28;20055;-80
2023/08/30 13:05:31;;;;;;;4.30;2.28;;;;;;;;;;5037690;28;20033;-80
2023/08/30 13:07:57;;;;;;;6.30;2.45;;;;;;;;;;5071735;28;20027;-80
2023/08/30 13:10:23;;;;;;;3.42;2.08;;;;;;;;;;5071461;28;20435;-80
2023/08/30 13:12:49;;;;;;;4.00;2.10;;;;;;;;;;5058461;28;20474;-80
2023/08/30 13:15:15;;;;;;;3.55;1.85;;;;;;;;;;5055376;28;20055;-81
2023/08/30 13:17:41;;;;;;;5.75;2.15;;;;;;;;;;5069984;28;20041;-80
2023/08/30 13:20:08;;;;;;;3.17;1.77;;;;;;;;;;5060889;28;20631;-80
2023/08/30 13:22:36;;;;;;;3.05;1.73;;;;;;;;;;5059526;28;20054;-80
2023/08/30 13:25:12;;;;;;;5.93;2.28;;;;;;;;;;5058187;28;20029;-80
2023/08/30 13:27:38;;;;;;;5.38;1.30;;;;;;;;;;5058852;28;20021;-80
2023/08/30 13:30:04;;;;;;;3.42;1.73;;;;;;;;;;5058860;28;20048;-80
2023/08/30 13:32:31;;;;;;;5.15;1.65;;;;;;;;;;5067171;28;20533;-80
2023/08/30 13:34:57;;;;;;;5.45;1.48;;;;;;;;;;5056092;28;20031;-78
2023/08/30 13:37:23;;;;;;;7.38;1.67;;;;;;;;;;5056331;28;20108;-79
2023/08/30 13:39:49;;;;;;;8.30;1.80;;;;;;;;;;5057289;28;20036;-79
2023/08/30 13:42:15;;;;;;;2.28;1.20;;;;;;;;;;5056338;28;20013;-79
2023/08/30 13:44:43;;;;;;;6.35;1.40;;;;;;;;;;5057211;28;20037;-79
2023/08/30 13:47:09;;;;;;;3.25;1.02;;;;;;;;;;5076353;28;20020;-81
2023/08/30 13:49:37;;;;;;;6.30;1.20;;;;;;;;;;5065301;28;20372;-81
2023/08/30 13:52:03;;;;;;;5.55;1.55;;;;;;;;;;5047758;28;20021;-81
2023/08/30 13:54:31;;;;;;;5.10;1.48;;;;;;;;;;5053168;28;20369;-81
2023/08/30 13:56:58;;;;;;;3.08;1.20;;;;;;;;;;5039689;28;20037;-81
2023/08/30 13:59:24;;;;;;;1.33;0.70;;;;;;;;;;5053587;28;20049;-82
2023/08/30 14:01:50;;;;;;;3.63;1.38;;;;;;;;;;5058715;28;20029;-81
2023/08/30 14:04:16;;;;;;;3.95;0.85;;;;;;;;;;5057989;28;20031;-81
2023/08/30 14:06:42;;;;;;;5.10;0.90;;;;;;;;;;5078347;28;20033;-81
2023/08/30 14:09:08;;;;;;;5.32;1.00;;;;;;;;;;5078754;28;20029;-81
2023/08/30 14:11:37;;;;;;;2.58;0.70;;;;;;;;;;5058411;28;20060;-82
2023/08/30 14:14:10;;;;;;;3.58;0.80;;;;;;;;;;5057608;28;20017;-82
2023/08/30 14:16:36;;;;;;;3.33;0.60;;;;;;;;;;5054590;28;20068;-82
2023/08/30 14:19:05;;;;;;;2.88;0.70;;;;;;;;;;5058790;28;20029;-82
2023/08/30 14:21:31;;;;;;;2.92;0.60;;;;;;;;;;5059088;28;20021;-82
2023/08/30 14:23:57;;;;;;;3.25;0.80;;;;;;;;;;5058175;28;20384;-81
2023/08/30 14:26:23;;;;;;;5.05;1.05;;;;;;;;;;5058735;28;20037;-81
2023/08/30 14:28:49;;;;;;;5.00;1.17;;;;;;;;;;5072812;28;20097;-81
2023/08/30 14:31:15;;;;;;;4.03;0.95;;;;;;;;;;5062455;28;20029;-81